createdAt,value
2022-07-25T00:01:47.151Z,31.80
2022-07-25T00:04:14.539Z,31.63
2022-07-25T00:06:43.103Z,31.62
2022-07-25T00:09:10.257Z,30.90
2022-07-25T00:11:37.167Z,31.33
2022-07-25T00:14:05.158Z,31.17
2022-07-25T00:16:32.444Z,31.05
2022-07-25T00:18:59.519Z,31.08
2022-07-25T00:21:26.618Z,30.83
2022-07-25T00:23:53.305Z,30.79
2022-07-25T00:26:20.115Z,30.72
2022-07-25T00:28:46.784Z,30.31
2022-07-25T00:31:13.526Z,30.74
2022-07-25T00:33:40.449Z,30.72
2022-07-25T00:36:10.632Z,30.77
2022-07-25T00:38:37.447Z,30.71
2022-07-25T00:41:04.793Z,30.41
2022-07-25T00:43:31.769Z,30.39
2022-07-25T00:45:59.531Z,30.36
2022-07-25T00:48:28.000Z,30.33
2022-07-25T00:50:56.272Z,30.25
2022-07-25T00:53:22.965Z,30.24
2022-07-25T00:55:49.694Z,30.26
2022-07-25T00:58:16.694Z,30.12
2022-07-25T01:00:43.408Z,30.36
2022-07-25T01:03:10.445Z,29.75
2022-07-25T01:05:37.428Z,30.10
2022-07-25T01:08:04.793Z,30.23
2022-07-25T01:10:32.920Z,30.27
2022-07-25T01:12:59.733Z,30.33
2022-07-25T01:15:26.850Z,30.21
2022-07-25T01:17:53.571Z,30.08
2022-07-25T01:20:21.883Z,30.18
2022-07-25T01:22:48.687Z,30.15
2022-07-25T01:25:16.273Z,30.20
2022-07-25T01:27:43.831Z,30.22
2022-07-25T01:30:12.384Z,30.22
2022-07-25T01:32:39.225Z,30.17
2022-07-25T01:35:07.099Z,30.31
2022-07-25T01:37:34.219Z,30.29
2022-07-25T01:40:01.353Z,30.23
2022-07-25T01:42:28.542Z,30.29
2022-07-25T01:44:55.939Z,30.27
2022-07-25T01:47:22.659Z,29.23
2022-07-25T01:49:49.523Z,30.39
2022-07-25T01:52:16.363Z,30.41
2022-07-25T01:54:43.497Z,30.28
2022-07-25T01:57:10.667Z,30.17
2022-07-25T01:59:40.358Z,30.15
2022-07-25T02:02:08.249Z,29.91
2022-07-25T02:04:35.780Z,29.53
2022-07-25T02:07:02.746Z,30.01
2022-07-25T02:09:29.359Z,30.28
2022-07-25T02:11:56.337Z,30.08
2022-07-25T02:14:23.550Z,30.37
2022-07-25T02:16:50.435Z,30.30
2022-07-25T02:19:17.198Z,30.05
2022-07-25T02:21:44.070Z,30.15
2022-07-25T02:24:11.003Z,29.98
2022-07-25T02:26:37.673Z,29.86
2022-07-25T02:29:04.592Z,30.14
2022-07-25T02:31:31.292Z,29.84
2022-07-25T02:33:57.901Z,30.17
2022-07-25T02:36:24.643Z,30.18
2022-07-25T02:38:51.642Z,29.90
2022-07-25T02:41:18.291Z,30.23
2022-07-25T02:43:44.902Z,30.09
2022-07-25T02:46:11.602Z,30.22
2022-07-25T02:48:38.658Z,29.98
2022-07-25T02:51:05.524Z,29.84
2022-07-25T02:53:55.474Z,29.90
2022-07-25T02:56:18.759Z,30.12
2022-07-25T02:58:48.185Z,29.71
2022-07-25T03:01:15.324Z,30.09
2022-07-25T03:03:42.159Z,29.83
2022-07-25T03:06:08.935Z,30.00
2022-07-25T03:08:36.816Z,29.65
2022-07-25T03:11:03.652Z,29.98
2022-07-25T03:13:30.409Z,29.91
2022-07-25T03:15:57.066Z,29.90
2022-07-25T03:18:23.706Z,29.66
2022-07-25T03:20:50.309Z,29.93
2022-07-25T03:23:16.987Z,29.93
2022-07-25T03:25:43.685Z,29.76
2022-07-25T03:28:10.342Z,29.81
2022-07-25T03:30:36.997Z,29.59
2022-07-25T03:33:03.757Z,29.79
2022-07-25T03:35:30.356Z,29.85
2022-07-25T03:37:57.356Z,29.56
2022-07-25T03:40:23.985Z,29.72
2022-07-25T03:42:50.552Z,29.17
2022-07-25T03:45:17.947Z,29.50
2022-07-25T03:47:44.927Z,29.49
2022-07-25T03:50:11.962Z,29.42
2022-07-25T03:52:38.716Z,29.45
2022-07-25T03:55:10.465Z,29.50
2022-07-25T03:57:38.084Z,29.47
2022-07-25T04:00:07.479Z,29.52
2022-07-25T04:02:34.851Z,29.52
2022-07-25T04:05:01.754Z,28.80
2022-07-25T04:07:28.460Z,29.49
2022-07-25T04:09:55.213Z,29.51
2022-07-25T04:12:21.870Z,29.51
2022-07-25T04:14:48.474Z,29.36
2022-07-25T04:17:15.252Z,29.31
2022-07-25T04:19:41.969Z,29.46
2022-07-25T04:22:08.759Z,29.22
2022-07-25T04:24:35.441Z,29.45
2022-07-25T04:27:02.112Z,29.39
2022-07-25T04:29:29.684Z,29.12
2022-07-25T04:31:56.312Z,29.55
2022-07-25T04:34:23.078Z,28.88
2022-07-25T04:36:49.930Z,29.62
2022-07-25T04:39:16.488Z,29.65
2022-07-25T04:41:43.283Z,29.72
2022-07-25T04:44:09.984Z,29.53
2022-07-25T04:46:36.833Z,29.63
2022-07-25T04:49:03.517Z,29.66
2022-07-25T04:51:30.205Z,29.59
2022-07-25T04:53:56.804Z,29.25
2022-07-25T04:56:23.434Z,29.55
2022-07-25T04:58:50.053Z,29.45
2022-07-25T05:01:16.792Z,29.68
2022-07-25T05:03:49.893Z,29.81
2022-07-25T05:06:17.348Z,29.75
2022-07-25T05:08:44.032Z,29.91
2022-07-25T05:11:10.682Z,29.89
2022-07-25T05:13:37.286Z,30.00
2022-07-25T05:16:04.148Z,29.88
2022-07-25T05:18:31.059Z,30.10
2022-07-25T05:20:58.987Z,30.11
2022-07-25T05:23:25.656Z,29.89
2022-07-25T05:25:52.486Z,30.21
2022-07-25T05:28:19.180Z,30.29
2022-07-25T05:30:45.942Z,30.33
2022-07-25T05:33:12.659Z,30.00
2022-07-25T05:35:39.432Z,30.24
2022-07-25T05:38:06.075Z,30.45
2022-07-25T05:40:32.677Z,30.49
2022-07-25T05:43:03.013Z,29.95
2022-07-25T05:45:31.271Z,30.54
2022-07-25T05:47:57.903Z,30.53
2022-07-25T05:50:24.655Z,30.15
2022-07-25T05:52:51.313Z,30.51
2022-07-25T05:55:18.380Z,30.79
2022-07-25T05:57:45.278Z,30.50
2022-07-25T06:00:12.724Z,30.91
2022-07-25T06:02:39.601Z,30.84
2022-07-25T06:05:06.527Z,30.28
2022-07-25T06:07:33.210Z,30.87
2022-07-25T06:09:59.848Z,30.55
2022-07-25T06:12:26.568Z,30.99
2022-07-25T06:14:53.547Z,31.02
2022-07-25T06:17:20.934Z,30.97
2022-07-25T06:19:47.678Z,30.79
2022-07-25T06:22:14.400Z,30.98
2022-07-25T06:24:41.528Z,31.01
2022-07-25T06:27:08.923Z,31.10
2022-07-25T06:29:35.824Z,31.20
2022-07-25T06:32:02.939Z,31.14
2022-07-25T06:34:33.322Z,31.18
2022-07-25T06:36:59.958Z,31.14
2022-07-25T06:39:28.143Z,31.32
2022-07-25T06:41:55.016Z,31.11
2022-07-25T06:44:21.712Z,31.41
2022-07-25T06:46:48.427Z,31.47
2022-07-25T06:49:16.904Z,31.51
2022-07-25T06:51:44.035Z,31.38
2022-07-25T06:54:10.654Z,31.25
2022-07-25T06:56:37.272Z,31.43
2022-07-25T06:59:03.967Z,31.56
2022-07-25T07:01:30.817Z,31.52
2022-07-25T07:03:57.420Z,31.34
2022-07-25T07:06:24.157Z,31.25
2022-07-25T07:08:51.697Z,30.60
2022-07-25T07:11:18.397Z,31.63
2022-07-25T07:13:45.075Z,31.34
2022-07-25T07:16:11.835Z,31.49
2022-07-25T07:18:39.220Z,31.54
2022-07-25T07:21:06.814Z,31.86
2022-07-25T07:23:34.777Z,31.66
2022-07-25T07:26:03.537Z,31.93
2022-07-25T07:28:30.389Z,31.85
2022-07-25T07:33:43.827Z,31.57
2022-07-25T07:36:10.777Z,31.96
2022-07-25T07:38:37.376Z,32.02
2022-07-25T07:41:04.012Z,31.86
2022-07-25T07:43:32.020Z,31.87
2022-07-25T07:46:01.417Z,31.44
2022-07-25T07:48:31.610Z,32.06
2022-07-25T07:51:01.152Z,32.10
2022-07-25T07:53:46.904Z,32.21
2022-07-25T07:56:14.635Z,31.34
2022-07-25T07:58:41.282Z,32.15
2022-07-25T08:01:08.015Z,32.54
2022-07-25T08:03:34.682Z,32.49
2022-07-25T08:06:01.432Z,32.28
2022-07-25T08:08:31.400Z,32.49
2022-07-25T08:10:59.543Z,32.43
2022-07-25T08:13:30.561Z,32.63
2022-07-25T08:15:58.502Z,32.51
2022-07-25T08:18:26.883Z,32.21
2022-07-25T08:20:53.659Z,32.75
2022-07-25T08:23:20.675Z,32.67
2022-07-25T08:25:47.439Z,32.74
2022-07-25T08:28:14.863Z,32.81
2022-07-25T08:30:42.135Z,31.86
2022-07-25T08:33:12.535Z,32.78
2022-07-25T08:35:41.085Z,33.02
2022-07-25T08:38:07.917Z,33.00
2022-07-25T08:40:35.268Z,33.17
2022-07-25T08:43:01.913Z,32.75
2022-07-25T08:45:28.841Z,33.22
2022-07-25T08:47:56.611Z,33.49
2022-07-25T08:50:27.215Z,32.68
2022-07-25T08:53:04.911Z,33.00
2022-07-25T08:55:43.618Z,33.35
2022-07-25T08:58:11.413Z,33.34
2022-07-25T09:00:38.944Z,33.30
2022-07-25T09:03:08.499Z,33.70
2022-07-25T09:05:36.828Z,33.70
2022-07-25T09:08:08.398Z,33.66
2022-07-25T09:10:36.081Z,33.83
2022-07-25T09:13:10.967Z,34.09
2022-07-25T09:15:40.458Z,33.95
2022-07-25T09:18:16.881Z,34.10
2022-07-25T09:20:48.117Z,33.60
2022-07-25T09:23:27.298Z,34.31
2022-07-25T09:26:10.928Z,34.31
2022-07-25T09:28:45.953Z,34.55
2022-07-25T09:31:14.439Z,34.61
2022-07-25T09:33:57.055Z,34.71
2022-07-25T09:36:24.152Z,34.71
2022-07-25T09:39:01.143Z,34.82
2022-07-25T09:41:35.161Z,34.60
2022-07-25T09:44:02.121Z,34.87
2022-07-25T09:46:32.979Z,34.87
2022-07-25T09:49:00.780Z,35.07
2022-07-25T09:51:29.106Z,35.19
2022-07-25T09:53:55.920Z,35.35
2022-07-25T09:56:22.680Z,35.42
2022-07-25T09:58:49.256Z,35.42
2022-07-25T10:01:22.946Z,35.58
2022-07-25T10:04:15.080Z,35.52
2022-07-25T10:06:52.621Z,35.92
2022-07-25T10:09:19.323Z,36.00
2022-07-25T10:12:06.868Z,35.93
2022-07-25T10:14:34.722Z,36.04
2022-07-25T10:17:02.128Z,36.42
2022-07-25T10:19:52.895Z,36.67
2022-07-25T10:22:39.734Z,36.75
2022-07-25T10:25:19.329Z,36.95
2022-07-25T10:27:52.941Z,36.93
2022-07-25T10:30:24.919Z,36.98
2022-07-25T10:33:02.343Z,36.97
2022-07-25T10:35:29.502Z,37.11
2022-07-25T10:37:58.288Z,37.33
2022-07-25T10:40:27.930Z,37.64
2022-07-25T10:43:22.123Z,37.79
2022-07-25T10:45:50.945Z,37.89
2022-07-25T10:48:32.763Z,38.01
2022-07-25T10:51:25.343Z,38.20
2022-07-25T10:53:52.161Z,38.11
2022-07-25T10:56:22.924Z,38.19
2022-07-25T10:58:51.525Z,38.38
2022-07-25T11:01:26.678Z,38.18
2022-07-25T11:03:56.513Z,37.93
2022-07-25T11:06:40.476Z,38.40
2022-07-25T11:09:18.500Z,38.79
2022-07-25T11:11:50.049Z,38.90
2022-07-25T11:14:22.427Z,39.08
2022-07-25T11:16:51.876Z,39.21
2022-07-25T11:19:22.950Z,38.86
2022-07-25T11:22:00.508Z,39.52
2022-07-25T11:24:43.075Z,39.64
2022-07-25T11:27:20.493Z,39.78
2022-07-25T11:29:47.073Z,39.86
2022-07-25T11:32:14.119Z,39.86
2022-07-25T11:34:53.333Z,39.83
2022-07-25T11:37:21.093Z,40.09
2022-07-25T11:39:48.293Z,40.16
2022-07-25T11:42:19.532Z,40.63
2022-07-25T11:44:52.880Z,40.55
2022-07-25T11:47:24.315Z,40.70
2022-07-25T11:49:52.445Z,40.88
2022-07-25T11:52:33.984Z,40.88
2022-07-25T11:55:02.674Z,41.11
2022-07-25T11:57:32.250Z,41.20
2022-07-25T12:00:00.463Z,41.21
2022-07-25T12:02:37.264Z,41.41
2022-07-25T12:05:10.296Z,41.61
2022-07-25T12:07:45.071Z,41.89
2022-07-25T12:10:23.384Z,41.92
2022-07-25T12:12:56.005Z,42.09
2022-07-25T12:15:28.945Z,42.20
2022-07-25T12:17:57.304Z,42.26
2022-07-25T12:20:26.643Z,42.39
2022-07-25T12:22:55.877Z,42.55
2022-07-25T12:25:28.908Z,42.63
2022-07-25T12:27:58.907Z,42.75
2022-07-25T12:30:27.494Z,42.79
2022-07-25T12:32:55.105Z,42.67
2022-07-25T12:35:24.815Z,42.75
2022-07-25T12:37:52.119Z,42.83
2022-07-25T12:40:19.933Z,43.19
2022-07-25T12:42:48.837Z,43.11
2022-07-25T12:45:17.849Z,43.44
2022-07-25T12:47:46.440Z,43.62
2022-07-25T12:50:13.832Z,43.75
2022-07-25T12:52:41.642Z,43.67
2022-07-25T12:55:10.440Z,44.05
2022-07-25T12:57:37.353Z,43.78
2022-07-25T13:00:05.871Z,44.20
2022-07-25T13:02:32.710Z,44.42
2022-07-25T13:04:59.761Z,44.41
2022-07-25T13:07:26.743Z,44.67
2022-07-25T13:09:53.295Z,44.88
2022-07-25T13:12:20.745Z,44.86
2022-07-25T13:14:47.891Z,44.88
2022-07-25T13:17:14.494Z,44.93
2022-07-25T13:19:41.100Z,44.68
2022-07-25T13:22:07.827Z,44.98
2022-07-25T13:24:34.667Z,44.58
2022-07-25T13:27:07.815Z,45.12
2022-07-25T13:29:34.551Z,45.17
2022-07-25T13:32:01.608Z,44.89
2022-07-25T13:34:28.577Z,44.76
2022-07-25T13:36:55.168Z,44.65
2022-07-25T13:39:22.536Z,44.38
2022-07-25T13:41:49.738Z,43.78
2022-07-25T13:44:16.822Z,43.48
2022-07-25T13:46:46.211Z,43.20
2022-07-25T13:49:13.253Z,42.76
2022-07-25T13:51:39.935Z,42.59
2022-07-25T13:54:07.174Z,42.23
2022-07-25T13:56:34.308Z,41.70
2022-07-25T13:59:03.541Z,41.16
2022-07-25T14:01:30.569Z,41.50
2022-07-25T14:03:57.290Z,41.01
2022-07-25T14:06:23.958Z,40.92
2022-07-25T14:08:50.582Z,40.84
2022-07-25T14:11:17.331Z,40.65
2022-07-25T14:13:45.318Z,40.37
2022-07-25T14:16:14.515Z,40.44
2022-07-25T14:18:41.160Z,40.22
2022-07-25T14:21:07.818Z,40.15
2022-07-25T14:23:34.586Z,39.88
2022-07-25T14:26:01.180Z,40.07
2022-07-25T14:28:27.905Z,39.70
2022-07-25T14:30:54.695Z,39.79
2022-07-25T14:33:21.434Z,39.44
2022-07-25T14:35:48.129Z,39.64
2022-07-25T14:38:14.829Z,39.53
2022-07-25T14:40:42.574Z,39.29
2022-07-25T14:43:09.163Z,39.40
2022-07-25T14:45:37.134Z,39.32
2022-07-25T14:48:06.972Z,39.25
2022-07-25T14:50:33.912Z,39.15
2022-07-25T14:53:00.588Z,38.92
2022-07-25T14:55:27.269Z,39.09
2022-07-25T14:57:53.911Z,38.95
2022-07-25T15:00:22.059Z,39.15
2022-07-25T15:02:51.608Z,38.88
2022-07-25T15:05:18.373Z,39.03
2022-07-25T15:07:45.111Z,39.05
2022-07-25T15:10:11.960Z,38.90
2022-07-25T15:12:38.772Z,39.06
2022-07-25T15:15:06.341Z,39.23
2022-07-25T15:17:33.747Z,38.48
2022-07-25T15:20:00.723Z,39.30
2022-07-25T15:22:27.318Z,39.33
2022-07-25T15:27:40.679Z,39.39
2022-07-25T15:30:07.791Z,39.16
2022-07-25T15:32:34.722Z,39.25
2022-07-25T15:35:01.470Z,39.47
2022-07-25T15:37:28.980Z,39.36
2022-07-25T15:39:56.008Z,39.33
2022-07-25T15:42:27.051Z,39.37
2022-07-25T15:45:15.254Z,39.26
2022-07-25T15:47:45.073Z,39.20
2022-07-25T15:50:14.464Z,38.87
2022-07-25T15:52:41.222Z,39.25
2022-07-25T15:55:08.052Z,39.44
2022-07-25T15:57:34.852Z,39.31
2022-07-25T16:00:01.422Z,38.54
2022-07-25T16:02:28.118Z,38.97
2022-07-25T16:04:54.658Z,39.13
2022-07-25T16:07:21.336Z,38.99
2022-07-25T16:09:48.079Z,39.36
2022-07-25T16:12:14.868Z,39.84
2022-07-25T16:14:41.622Z,40.36
2022-07-25T16:17:08.408Z,41.08
2022-07-25T16:19:35.127Z,41.53
2022-07-25T16:22:02.179Z,41.88
2022-07-25T16:24:28.748Z,42.00
2022-07-25T16:26:55.355Z,42.14
2022-07-25T16:29:22.212Z,41.90
2022-07-25T16:31:49.262Z,41.51
2022-07-25T16:34:15.911Z,41.04
2022-07-25T16:36:42.544Z,40.70
2022-07-25T16:39:13.375Z,40.38
2022-07-25T16:41:39.962Z,39.85
2022-07-25T16:44:07.064Z,40.13
2022-07-25T16:46:33.694Z,39.56
2022-07-25T16:49:00.397Z,39.78
2022-07-25T16:51:27.108Z,40.05
2022-07-25T16:53:53.954Z,39.56
2022-07-25T16:56:20.799Z,39.54
2022-07-25T16:58:47.614Z,39.35
2022-07-25T17:03:41.960Z,38.76
2022-07-25T17:06:09.471Z,38.65
2022-07-25T17:08:37.785Z,39.17
2022-07-25T17:11:05.457Z,39.25
2022-07-25T17:13:32.192Z,38.98
2022-07-25T17:15:58.911Z,39.08
2022-07-25T17:18:25.756Z,38.67
2022-07-25T17:20:54.537Z,38.64
2022-07-25T17:23:21.805Z,38.86
2022-07-25T17:25:50.658Z,38.70
2022-07-25T17:28:17.962Z,38.67
2022-07-25T17:30:45.688Z,38.50
2022-07-25T17:33:12.272Z,38.52
2022-07-25T17:35:42.311Z,38.33
2022-07-25T17:38:12.074Z,38.43
2022-07-25T17:40:45.164Z,37.87
2022-07-25T17:43:11.773Z,37.91
2022-07-25T17:45:38.619Z,37.06
2022-07-25T17:48:05.414Z,38.11
2022-07-25T17:50:32.253Z,37.97
2022-07-25T17:52:59.972Z,37.98
2022-07-25T17:55:28.137Z,38.07
2022-07-25T17:57:55.754Z,37.80
2022-07-25T18:00:23.352Z,37.42
2022-07-25T18:02:50.993Z,37.70
2022-07-25T18:05:18.128Z,37.41
2022-07-25T18:07:46.317Z,37.99
2022-07-25T18:10:20.206Z,38.00
2022-07-25T18:12:47.914Z,37.94
2022-07-25T18:15:14.997Z,37.64
2022-07-25T18:17:43.109Z,37.58
2022-07-25T18:20:10.576Z,37.17
2022-07-25T18:22:38.344Z,37.11
2022-07-25T18:25:06.515Z,36.78
2022-07-25T18:27:33.647Z,36.89
2022-07-25T18:30:00.403Z,37.13
2022-07-25T18:32:27.020Z,36.86
2022-07-25T18:34:53.836Z,37.00
2022-07-25T18:37:20.681Z,36.94
2022-07-25T18:39:47.421Z,36.75
2022-07-25T18:42:14.094Z,36.65
2022-07-25T18:44:40.631Z,36.63
2022-07-25T18:47:07.666Z,36.68
2022-07-25T18:49:34.315Z,36.56
2022-07-25T18:52:00.915Z,36.54
2022-07-25T18:54:27.909Z,36.40
2022-07-25T18:56:54.541Z,36.24
2022-07-25T18:59:21.261Z,36.16
2022-07-25T19:01:47.994Z,36.34
2022-07-25T19:04:15.353Z,36.23
2022-07-25T19:06:42.066Z,35.97
2022-07-25T19:09:09.070Z,36.27
2022-07-25T19:11:41.687Z,36.18
2022-07-25T19:14:09.372Z,35.75
2022-07-25T19:16:36.486Z,35.70
2022-07-25T19:19:03.563Z,35.76
2022-07-25T19:21:30.201Z,35.94
2022-07-25T19:23:56.896Z,35.59
2022-07-25T19:26:23.789Z,35.89
2022-07-25T19:28:51.146Z,35.68
2022-07-25T19:31:17.888Z,34.90
2022-07-25T19:33:45.992Z,35.77
2022-07-25T19:36:13.829Z,35.81
2022-07-25T19:38:40.413Z,35.52
2022-07-25T19:41:08.272Z,35.72
2022-07-25T19:43:35.593Z,35.70
2022-07-25T19:46:02.281Z,35.51
2022-07-25T19:48:28.973Z,35.62
2022-07-25T19:50:56.326Z,35.60
2022-07-25T19:53:28.091Z,34.74
2022-07-25T19:55:55.282Z,35.60
2022-07-25T19:58:21.887Z,35.27
2022-07-25T20:00:48.496Z,35.34
2022-07-25T20:03:15.685Z,35.45
2022-07-25T20:05:42.524Z,35.40
2022-07-25T20:08:09.127Z,35.26
2022-07-25T20:10:35.733Z,34.80
2022-07-25T20:13:02.399Z,35.13
2022-07-25T20:15:29.633Z,35.21
2022-07-25T20:17:56.978Z,34.57
2022-07-25T20:20:24.492Z,35.12
2022-07-25T20:22:51.540Z,34.94
2022-07-25T20:25:18.151Z,35.17
2022-07-25T20:27:45.038Z,34.99
2022-07-25T20:30:12.401Z,35.04
2022-07-25T20:32:39.083Z,34.99
2022-07-25T20:35:06.205Z,34.98
2022-07-25T20:37:32.961Z,34.84
2022-07-25T20:40:00.104Z,34.72
2022-07-25T20:42:27.379Z,34.76
2022-07-25T20:44:54.084Z,33.97
2022-07-25T20:47:20.843Z,34.63
2022-07-25T20:49:47.562Z,34.51
2022-07-25T20:52:14.170Z,34.77
2022-07-25T20:54:42.873Z,34.82
2022-07-25T20:57:11.552Z,34.45
2022-07-25T20:59:38.240Z,34.40
2022-07-25T21:02:04.932Z,34.13
2022-07-25T21:04:31.772Z,34.47
2022-07-25T21:06:58.434Z,34.35
2022-07-25T21:09:27.428Z,34.38
2022-07-25T21:11:57.723Z,34.43
2022-07-25T21:14:24.304Z,34.32
2022-07-25T21:16:50.989Z,34.35
2022-07-25T21:19:17.631Z,34.30
2022-07-25T21:21:44.807Z,33.92
2022-07-25T21:24:12.398Z,34.02
2022-07-25T21:26:39.506Z,34.13
2022-07-25T21:29:07.374Z,33.80
2022-07-25T21:31:34.683Z,34.20
2022-07-25T21:34:02.109Z,34.09
2022-07-25T21:36:30.137Z,34.07
2022-07-25T21:38:56.809Z,34.18
2022-07-25T21:41:23.553Z,34.13
2022-07-25T21:43:50.892Z,33.81
2022-07-25T21:46:17.649Z,33.65
2022-07-25T21:49:02.821Z,33.33
2022-07-25T21:51:40.208Z,32.92
2022-07-25T21:54:07.305Z,32.44
2022-07-25T21:56:33.926Z,32.59
2022-07-25T21:59:00.535Z,32.15
2022-07-25T22:01:27.122Z,32.40
2022-07-25T22:03:53.825Z,32.19
2022-07-25T22:06:20.780Z,32.11
2022-07-25T22:08:47.393Z,31.67
2022-07-25T22:11:16.086Z,32.06
2022-07-25T22:14:01.893Z,31.49
2022-07-25T22:16:28.572Z,32.07
2022-07-25T22:18:57.206Z,31.90
2022-07-25T22:21:23.987Z,31.70
2022-07-25T22:23:50.631Z,31.83
2022-07-25T22:26:17.352Z,31.53
2022-07-25T22:28:43.924Z,31.72
2022-07-25T22:31:10.606Z,31.79
2022-07-25T22:33:38.314Z,31.77
2022-07-25T22:36:05.739Z,31.86
2022-07-25T22:38:32.463Z,31.69
2022-07-25T22:40:59.016Z,31.51
2022-07-25T22:43:25.571Z,31.53
2022-07-25T22:46:12.684Z,31.71
2022-07-25T22:48:42.154Z,31.54
2022-07-25T22:51:08.743Z,31.18
2022-07-25T22:53:35.426Z,31.71
2022-07-25T22:56:02.076Z,31.71
2022-07-25T22:58:28.746Z,31.86
2022-07-25T23:00:55.491Z,31.78
2022-07-25T23:03:22.571Z,31.73
2022-07-25T23:05:49.357Z,31.51
2022-07-25T23:08:20.508Z,31.55
2022-07-25T23:10:47.243Z,31.47
2022-07-25T23:13:13.833Z,31.55
2022-07-25T23:15:51.041Z,31.56
2022-07-25T23:18:18.741Z,31.68
2022-07-25T23:20:45.394Z,31.60
2022-07-25T23:23:12.591Z,31.51
2022-07-25T23:25:39.246Z,31.64
2022-07-25T23:28:06.010Z,31.64
2022-07-25T23:30:38.043Z,31.18
2022-07-25T23:33:06.497Z,31.63
2022-07-25T23:35:33.148Z,31.55
2022-07-25T23:37:59.817Z,31.41
2022-07-25T23:40:26.974Z,31.65
2022-07-25T23:42:54.500Z,31.49
2022-07-25T23:45:22.012Z,31.67
2022-07-25T23:47:52.118Z,31.57
2022-07-25T23:50:19.850Z,31.61
2022-07-25T23:52:46.785Z,31.65
2022-07-25T23:55:13.482Z,31.34
2022-07-25T23:57:40.082Z,31.70
